sensor_id;sensor_type;location;lat;lon;timestamp;temperature;humidity
75931;DHT22;64609;47.052;15.462;2023-03-14T00:01:28;11.10;57.00
75931;DHT22;64609;47.052;15.462;2023-03-14T00:03:54;11.10;57.20
75931;DHT22;64609;47.052;15.462;2023-03-14T00:06:20;11.10;58.30
75931;DHT22;64609;47.052;15.462;2023-03-14T00:08:46;11.00;57.20
75931;DHT22;64609;47.052;15.462;2023-03-14T00:11:14;11.00;57.50
75931;DHT22;64609;47.052;15.462;2023-03-14T00:13:40;11.00;57.60
75931;DHT22;64609;47.052;15.462;2023-03-14T00:16:08;10.80;57.80
75931;DHT22;64609;47.052;15.462;2023-03-14T00:18:34;10.80;58.00
75931;DHT22;64609;47.052;15.462;2023-03-14T00:21:01;10.80;58.00
75931;DHT22;64609;47.052;15.462;2023-03-14T00:23:29;10.90;57.90
75931;DHT22;64609;47.052;15.462;2023-03-14T00:25:59;11.00;58.00
75931;DHT22;64609;47.052;15.462;2023-03-14T00:28:25;11.00;57.80
75931;DHT22;64609;47.052;15.462;2023-03-14T00:30:50;11.10;58.00
75931;DHT22;64609;47.052;15.462;2023-03-14T00:33:16;11.00;58.00
75931;DHT22;64609;47.052;15.462;2023-03-14T00:35:42;11.00;57.60
75931;DHT22;64609;47.052;15.462;2023-03-14T00:38:07;11.10;57.90
75931;DHT22;64609;47.052;15.462;2023-03-14T00:40:33;11.00;58.00
75931;DHT22;64609;47.052;15.462;2023-03-14T00:42:58;11.10;57.90
75931;DHT22;64609;47.052;15.462;2023-03-14T00:45:24;11.10;58.00
75931;DHT22;64609;47.052;15.462;2023-03-14T00:47:50;11.10;58.20
75931;DHT22;64609;47.052;15.462;2023-03-14T00:50:15;11.10;57.90
75931;DHT22;64609;47.052;15.462;2023-03-14T00:52:41;11.10;58.20
75931;DHT22;64609;47.052;15.462;2023-03-14T00:55:07;11.10;58.20
75931;DHT22;64609;47.052;15.462;2023-03-14T00:57:32;11.10;58.00
75931;DHT22;64609;47.052;15.462;2023-03-14T00:59:58;11.00;58.20
75931;DHT22;64609;47.052;15.462;2023-03-14T01:02:24;11.10;58.30
75931;DHT22;64609;47.052;15.462;2023-03-14T01:04:49;11.10;58.10
75931;DHT22;64609;47.052;15.462;2023-03-14T01:07:16;11.10;58.10
75931;DHT22;64609;47.052;15.462;2023-03-14T01:09:41;11.20;58.20
75931;DHT22;64609;47.052;15.462;2023-03-14T01:12:07;11.20;58.20
75931;DHT22;64609;47.052;15.462;2023-03-14T01:14:33;11.20;58.20
75931;DHT22;64609;47.052;15.462;2023-03-14T01:16:58;11.30;58.10
75931;DHT22;64609;47.052;15.462;2023-03-14T01:19:27;11.20;58.60
75931;DHT22;64609;47.052;15.462;2023-03-14T01:21:53;11.20;58.50
75931;DHT22;64609;47.052;15.462;2023-03-14T01:24:19;11.30;58.50
75931;DHT22;64609;47.052;15.462;2023-03-14T01:26:46;11.30;58.40
75931;DHT22;64609;47.052;15.462;2023-03-14T01:29:12;11.40;58.30
75931;DHT22;64609;47.052;15.462;2023-03-14T01:31:37;11.40;58.20
75931;DHT22;64609;47.052;15.462;2023-03-14T01:34:03;11.40;58.10
75931;DHT22;64609;47.052;15.462;2023-03-14T01:36:29;11.30;58.10
75931;DHT22;64609;47.052;15.462;2023-03-14T01:38:54;11.40;58.30
75931;DHT22;64609;47.052;15.462;2023-03-14T01:41:24;11.40;58.30
75931;DHT22;64609;47.052;15.462;2023-03-14T01:43:51;11.40;58.20
75931;DHT22;64609;47.052;15.462;2023-03-14T01:49:07;11.50;58.20
75931;DHT22;64609;47.052;15.462;2023-03-14T01:54:21;11.50;58.20
75931;DHT22;64609;47.052;15.462;2023-03-14T01:56:56;11.40;58.20
75931;DHT22;64609;47.052;15.462;2023-03-14T01:59:22;11.30;58.40
75931;DHT22;64609;47.052;15.462;2023-03-14T02:01:49;11.30;58.30
75931;DHT22;64609;47.052;15.462;2023-03-14T02:04:17;11.30;58.40
75931;DHT22;64609;47.052;15.462;2023-03-14T02:06:51;11.40;59.40
75931;DHT22;64609;47.052;15.462;2023-03-14T02:09:18;11.40;58.60
75931;DHT22;64609;47.052;15.462;2023-03-14T02:11:45;11.30;58.60
75931;DHT22;64609;47.052;15.462;2023-03-14T02:14:19;11.30;58.60
75931;DHT22;64609;47.052;15.462;2023-03-14T02:16:47;11.40;58.50
75931;DHT22;64609;47.052;15.462;2023-03-14T02:19:13;11.30;58.40
75931;DHT22;64609;47.052;15.462;2023-03-14T02:21:50;11.30;58.50
75931;DHT22;64609;47.052;15.462;2023-03-14T02:27:10;11.30;58.60
75931;DHT22;64609;47.052;15.462;2023-03-14T02:29:39;11.30;58.70
75931;DHT22;64609;47.052;15.462;2023-03-14T02:32:06;11.30;58.70
75931;DHT22;64609;47.052;15.462;2023-03-14T02:34:33;11.30;58.70
75931;DHT22;64609;47.052;15.462;2023-03-14T02:37:00;11.30;58.80
75931;DHT22;64609;47.052;15.462;2023-03-14T02:39:40;11.30;59.00
75931;DHT22;64609;47.052;15.462;2023-03-14T02:42:07;11.40;58.90
75931;DHT22;64609;47.052;15.462;2023-03-14T02:44:32;11.30;58.70
75931;DHT22;64609;47.052;15.462;2023-03-14T02:46:58;11.30;59.00
75931;DHT22;64609;47.052;15.462;2023-03-14T02:49:27;11.40;59.20
75931;DHT22;64609;47.052;15.462;2023-03-14T02:51:53;11.40;59.00
75931;DHT22;64609;47.052;15.462;2023-03-14T02:54:19;11.40;59.00
75931;DHT22;64609;47.052;15.462;2023-03-14T02:56:45;11.40;59.00
75931;DHT22;64609;47.052;15.462;2023-03-14T02:59:11;11.40;59.10
75931;DHT22;64609;47.052;15.462;2023-03-14T03:01:37;11.40;58.90
75931;DHT22;64609;47.052;15.462;2023-03-14T03:04:02;11.40;59.10
75931;DHT22;64609;47.052;15.462;2023-03-14T03:06:28;11.40;59.20
75931;DHT22;64609;47.052;15.462;2023-03-14T03:08:54;11.40;59.20
75931;DHT22;64609;47.052;15.462;2023-03-14T03:11:19;11.40;59.20
75931;DHT22;64609;47.052;15.462;2023-03-14T03:13:45;11.40;59.30
75931;DHT22;64609;47.052;15.462;2023-03-14T03:16:11;11.40;59.20
75931;DHT22;64609;47.052;15.462;2023-03-14T03:18:38;11.40;59.30
75931;DHT22;64609;47.052;15.462;2023-03-14T03:21:05;11.50;59.30
75931;DHT22;64609;47.052;15.462;2023-03-14T03:23:31;11.50;59.20
75931;DHT22;64609;47.052;15.462;2023-03-14T03:25:57;11.50;59.30
75931;DHT22;64609;47.052;15.462;2023-03-14T03:28:22;11.50;59.30
75931;DHT22;64609;47.052;15.462;2023-03-14T03:30:48;11.40;59.40
75931;DHT22;64609;47.052;15.462;2023-03-14T03:33:14;11.30;59.50
75931;DHT22;64609;47.052;15.462;2023-03-14T03:35:47;11.40;59.70
75931;DHT22;64609;47.052;15.462;2023-03-14T03:38:13;11.40;59.50
75931;DHT22;64609;47.052;15.462;2023-03-14T03:40:39;11.40;59.50
75931;DHT22;64609;47.052;15.462;2023-03-14T03:43:05;11.40;59.70
75931;DHT22;64609;47.052;15.462;2023-03-14T03:45:30;11.40;59.70
75931;DHT22;64609;47.052;15.462;2023-03-14T03:47:56;11.40;59.50
75931;DHT22;64609;47.052;15.462;2023-03-14T03:50:22;11.30;59.90
75931;DHT22;64609;47.052;15.462;2023-03-14T03:52:47;11.30;59.90
75931;DHT22;64609;47.052;15.462;2023-03-14T03:55:13;11.30;59.90
75931;DHT22;64609;47.052;15.462;2023-03-14T03:57:39;11.30;59.90
75931;DHT22;64609;47.052;15.462;2023-03-14T04:00:05;11.30;60.00
75931;DHT22;64609;47.052;15.462;2023-03-14T04:02:31;11.30;59.90
75931;DHT22;64609;47.052;15.462;2023-03-14T04:04:57;11.20;60.10
75931;DHT22;64609;47.052;15.462;2023-03-14T04:07:22;11.20;60.10
75931;DHT22;64609;47.052;15.462;2023-03-14T04:09:48;11.20;60.10
75931;DHT22;64609;47.052;15.462;2023-03-14T04:12:14;11.30;60.20
75931;DHT22;64609;47.052;15.462;2023-03-14T04:14:39;11.20;60.20
75931;DHT22;64609;47.052;15.462;2023-03-14T04:17:06;11.20;60.30
75931;DHT22;64609;47.052;15.462;2023-03-14T04:19:32;11.20;60.20
75931;DHT22;64609;47.052;15.462;2023-03-14T04:21:58;11.30;60.30
75931;DHT22;64609;47.052;15.462;2023-03-14T04:24:23;11.20;61.30
75931;DHT22;64609;47.052;15.462;2023-03-14T04:26:49;11.20;60.50
75931;DHT22;64609;47.052;15.462;2023-03-14T04:29:14;11.30;60.60
75931;DHT22;64609;47.052;15.462;2023-03-14T04:31:40;11.30;60.60
75931;DHT22;64609;47.052;15.462;2023-03-14T04:34:06;11.30;60.60
75931;DHT22;64609;47.052;15.462;2023-03-14T04:36:31;11.30;60.60
75931;DHT22;64609;47.052;15.462;2023-03-14T04:38:57;11.30;60.60
75931;DHT22;64609;47.052;15.462;2023-03-14T04:41:23;11.40;60.70
75931;DHT22;64609;47.052;15.462;2023-03-14T04:43:48;11.40;60.70
75931;DHT22;64609;47.052;15.462;2023-03-14T04:46:14;11.40;60.70
75931;DHT22;64609;47.052;15.462;2023-03-14T04:48:40;11.40;60.70
75931;DHT22;64609;47.052;15.462;2023-03-14T04:51:05;11.50;60.80
75931;DHT22;64609;47.052;15.462;2023-03-14T04:53:31;11.50;60.70
75931;DHT22;64609;47.052;15.462;2023-03-14T04:55:57;11.50;60.80
75931;DHT22;64609;47.052;15.462;2023-03-14T04:58:23;11.60;60.80
75931;DHT22;64609;47.052;15.462;2023-03-14T05:00:49;11.60;60.80
75931;DHT22;64609;47.052;15.462;2023-03-14T05:03:16;11.60;60.80
75931;DHT22;64609;47.052;15.462;2023-03-14T05:05:42;11.70;60.90
75931;DHT22;64609;47.052;15.462;2023-03-14T05:08:08;11.70;60.90
75931;DHT22;64609;47.052;15.462;2023-03-14T05:10:34;11.80;60.90
75931;DHT22;64609;47.052;15.462;2023-03-14T05:13:00;11.80;60.90
75931;DHT22;64609;47.052;15.462;2023-03-14T05:15:25;11.80;60.90
75931;DHT22;64609;47.052;15.462;2023-03-14T05:17:51;11.90;60.90
75931;DHT22;64609;47.052;15.462;2023-03-14T05:20:18;11.90;60.90
75931;DHT22;64609;47.052;15.462;2023-03-14T05:22:43;11.90;60.90
75931;DHT22;64609;47.052;15.462;2023-03-14T05:25:10;12.00;61.10
75931;DHT22;64609;47.052;15.462;2023-03-14T05:27:35;12.00;61.00
75931;DHT22;64609;47.052;15.462;2023-03-14T05:30:03;12.10;61.00
75931;DHT22;64609;47.052;15.462;2023-03-14T05:32:28;12.10;61.00
75931;DHT22;64609;47.052;15.462;2023-03-14T05:34:54;12.10;61.10
75931;DHT22;64609;47.052;15.462;2023-03-14T05:37:23;12.20;61.10
75931;DHT22;64609;47.052;15.462;2023-03-14T05:39:49;12.20;61.10
75931;DHT22;64609;47.052;15.462;2023-03-14T05:42:14;12.30;62.00
75931;DHT22;64609;47.052;15.462;2023-03-14T05:44:40;12.30;61.10
75931;DHT22;64609;47.052;15.462;2023-03-14T05:47:06;12.40;61.00
75931;DHT22;64609;47.052;15.462;2023-03-14T05:49:31;12.40;60.90
75931;DHT22;64609;47.052;15.462;2023-03-14T05:51:57;12.50;60.80
75931;DHT22;64609;47.052;15.462;2023-03-14T05:54:23;12.50;60.80
75931;DHT22;64609;47.052;15.462;2023-03-14T05:56:48;12.60;60.90
75931;DHT22;64609;47.052;15.462;2023-03-14T05:59:14;12.60;60.90
75931;DHT22;64609;47.052;15.462;2023-03-14T06:01:40;12.70;61.30
75931;DHT22;64609;47.052;15.462;2023-03-14T06:04:05;12.70;61.30
75931;DHT22;64609;47.052;15.462;2023-03-14T06:06:31;12.80;61.20
75931;DHT22;64609;47.052;15.462;2023-03-14T06:08:57;12.80;61.10
75931;DHT22;64609;47.052;15.462;2023-03-14T06:11:22;12.90;61.00
75931;DHT22;64609;47.052;15.462;2023-03-14T06:13:48;12.90;61.10
75931;DHT22;64609;47.052;15.462;2023-03-14T06:16:13;13.00;61.00
75931;DHT22;64609;47.052;15.462;2023-03-14T06:18:39;13.10;61.00
75931;DHT22;64609;47.052;15.462;2023-03-14T06:21:05;13.20;61.00
75931;DHT22;64609;47.052;15.462;2023-03-14T06:23:31;13.30;61.20
75931;DHT22;64609;47.052;15.462;2023-03-14T06:25:57;13.40;61.60
75931;DHT22;64609;47.052;15.462;2023-03-14T06:28:23;13.40;61.70
75931;DHT22;64609;47.052;15.462;2023-03-14T06:30:49;13.50;61.80
75931;DHT22;64609;47.052;15.462;2023-03-14T06:33:14;13.60;61.90
75931;DHT22;64609;47.052;15.462;2023-03-14T06:35:40;13.70;61.90
75931;DHT22;64609;47.052;15.462;2023-03-14T06:38:05;13.80;61.70
75931;DHT22;64609;47.052;15.462;2023-03-14T06:40:31;13.80;61.50
75931;DHT22;64609;47.052;15.462;2023-03-14T06:42:57;13.90;61.40
75931;DHT22;64609;47.052;15.462;2023-03-14T06:45:22;14.00;61.20
75931;DHT22;64609;47.052;15.462;2023-03-14T06:47:48;14.10;61.20
75931;DHT22;64609;47.052;15.462;2023-03-14T06:50:14;14.20;61.20
75931;DHT22;64609;47.052;15.462;2023-03-14T06:52:40;14.30;61.20
75931;DHT22;64609;47.052;15.462;2023-03-14T06:55:16;14.40;61.40
75931;DHT22;64609;47.052;15.462;2023-03-14T06:57:42;14.40;61.40
75931;DHT22;64609;47.052;15.462;2023-03-14T07:00:10;14.50;61.40
75931;DHT22;64609;47.052;15.462;2023-03-14T07:02:36;14.60;61.40
75931;DHT22;64609;47.052;15.462;2023-03-14T07:05:02;14.70;61.50
75931;DHT22;64609;47.052;15.462;2023-03-14T07:07:28;14.80;61.70
75931;DHT22;64609;47.052;15.462;2023-03-14T07:09:53;14.80;61.80
75931;DHT22;64609;47.052;15.462;2023-03-14T07:12:19;14.90;61.80
75931;DHT22;64609;47.052;15.462;2023-03-14T07:14:45;15.00;61.90
75931;DHT22;64609;47.052;15.462;2023-03-14T07:17:11;15.10;61.80
75931;DHT22;64609;47.052;15.462;2023-03-14T07:19:36;15.20;61.80
75931;DHT22;64609;47.052;15.462;2023-03-14T07:22:04;15.20;61.70
75931;DHT22;64609;47.052;15.462;2023-03-14T07:24:29;15.30;61.90
75931;DHT22;64609;47.052;15.462;2023-03-14T07:26:55;15.50;62.10
75931;DHT22;64609;47.052;15.462;2023-03-14T07:29:21;15.50;62.00
75931;DHT22;64609;47.052;15.462;2023-03-14T07:31:46;15.60;61.80
75931;DHT22;64609;47.052;15.462;2023-03-14T07:34:12;15.60;61.50
75931;DHT22;64609;47.052;15.462;2023-03-14T07:36:38;15.70;61.80
75931;DHT22;64609;47.052;15.462;2023-03-14T07:39:03;15.60;61.70
75931;DHT22;64609;47.052;15.462;2023-03-14T07:41:30;15.70;61.50
75931;DHT22;64609;47.052;15.462;2023-03-14T07:43:56;15.70;61.30
75931;DHT22;64609;47.052;15.462;2023-03-14T07:46:21;15.90;61.20
75931;DHT22;64609;47.052;15.462;2023-03-14T07:48:47;16.00;61.20
75931;DHT22;64609;47.052;15.462;2023-03-14T07:51:12;16.20;60.80
75931;DHT22;64609;47.052;15.462;2023-03-14T07:53:38;16.40;60.70
75931;DHT22;64609;47.052;15.462;2023-03-14T07:56:05;16.60;60.70
75931;DHT22;64609;47.052;15.462;2023-03-14T07:58:31;16.80;60.60
75931;DHT22;64609;47.052;15.462;2023-03-14T08:00:58;17.00;60.00
75931;DHT22;64609;47.052;15.462;2023-03-14T08:03:24;17.20;58.40
75931;DHT22;64609;47.052;15.462;2023-03-14T08:05:50;17.30;58.10
75931;DHT22;64609;47.052;15.462;2023-03-14T08:08:16;17.30;57.40
75931;DHT22;64609;47.052;15.462;2023-03-14T08:10:42;17.30;57.10
75931;DHT22;64609;47.052;15.462;2023-03-14T08:13:09;17.40;56.90
75931;DHT22;64609;47.052;15.462;2023-03-14T08:15:35;17.50;56.80
75931;DHT22;64609;47.052;15.462;2023-03-14T08:18:02;17.70;56.60
75931;DHT22;64609;47.052;15.462;2023-03-14T08:20:28;17.90;56.40
75931;DHT22;64609;47.052;15.462;2023-03-14T08:22:58;18.20;55.60
75931;DHT22;64609;47.052;15.462;2023-03-14T08:25:25;18.40;54.90
75931;DHT22;64609;47.052;15.462;2023-03-14T08:27:51;18.70;54.40
75931;DHT22;64609;47.052;15.462;2023-03-14T08:30:17;18.80;54.00
75931;DHT22;64609;47.052;15.462;2023-03-14T08:32:43;19.00;53.70
75931;DHT22;64609;47.052;15.462;2023-03-14T08:35:09;19.10;53.20
75931;DHT22;64609;47.052;15.462;2023-03-14T08:37:35;19.10;52.60
75931;DHT22;64609;47.052;15.462;2023-03-14T08:40:02;19.10;52.60
75931;DHT22;64609;47.052;15.462;2023-03-14T08:42:32;19.20;52.80
75931;DHT22;64609;47.052;15.462;2023-03-14T08:44:58;19.20;52.50
75931;DHT22;64609;47.052;15.462;2023-03-14T08:47:24;19.30;52.30
75931;DHT22;64609;47.052;15.462;2023-03-14T08:49:49;19.30;52.30
75931;DHT22;64609;47.052;15.462;2023-03-14T08:52:15;19.40;52.00
75931;DHT22;64609;47.052;15.462;2023-03-14T08:54:44;19.50;51.80
75931;DHT22;64609;47.052;15.462;2023-03-14T08:57:10;19.60;51.10
75931;DHT22;64609;47.052;15.462;2023-03-14T08:59:36;19.70;51.20
75931;DHT22;64609;47.052;15.462;2023-03-14T09:02:02;19.80;50.50
75931;DHT22;64609;47.052;15.462;2023-03-14T09:04:32;19.70;50.30
75931;DHT22;64609;47.052;15.462;2023-03-14T09:06:58;19.70;50.00
75931;DHT22;64609;47.052;15.462;2023-03-14T09:09:25;19.60;50.10
75931;DHT22;64609;47.052;15.462;2023-03-14T09:11:52;19.70;50.50
75931;DHT22;64609;47.052;15.462;2023-03-14T09:14:18;19.80;50.10
75931;DHT22;64609;47.052;15.462;2023-03-14T09:16:43;20.00;49.90
75931;DHT22;64609;47.052;15.462;2023-03-14T09:19:09;20.00;48.70
75931;DHT22;64609;47.052;15.462;2023-03-14T09:21:35;19.80;49.20
75931;DHT22;64609;47.052;15.462;2023-03-14T09:24:01;19.90;49.80
75931;DHT22;64609;47.052;15.462;2023-03-14T09:26:27;20.00;49.70
75931;DHT22;64609;47.052;15.462;2023-03-14T09:28:52;20.10;49.30
75931;DHT22;64609;47.052;15.462;2023-03-14T09:31:18;20.10;49.00
75931;DHT22;64609;47.052;15.462;2023-03-14T09:33:44;20.00;48.60
75931;DHT22;64609;47.052;15.462;2023-03-14T09:36:10;19.80;49.10
75931;DHT22;64609;47.052;15.462;2023-03-14T09:38:36;19.70;49.50
75931;DHT22;64609;47.052;15.462;2023-03-14T09:41:09;19.50;48.80
75931;DHT22;64609;47.052;15.462;2023-03-14T09:43:37;19.40;48.70
75931;DHT22;64609;47.052;15.462;2023-03-14T09:46:05;19.30;48.50
75931;DHT22;64609;47.052;15.462;2023-03-14T09:48:33;19.20;50.00
75931;DHT22;64609;47.052;15.462;2023-03-14T09:51:05;19.10;49.20
75931;DHT22;64609;47.052;15.462;2023-03-14T09:53:41;19.10;49.20
75931;DHT22;64609;47.052;15.462;2023-03-14T09:56:20;19.00;49.20
75931;DHT22;64609;47.052;15.462;2023-03-14T09:58:55;18.90;49.30
75931;DHT22;64609;47.052;15.462;2023-03-14T10:01:27;18.90;49.40
75931;DHT22;64609;47.052;15.462;2023-03-14T10:03:59;18.90;49.40
75931;DHT22;64609;47.052;15.462;2023-03-14T10:06:27;18.80;49.30
75931;DHT22;64609;47.052;15.462;2023-03-14T10:08:54;18.80;49.30
75931;DHT22;64609;47.052;15.462;2023-03-14T10:11:21;18.80;49.00
75931;DHT22;64609;47.052;15.462;2023-03-14T10:14:30;18.70;49.00
75931;DHT22;64609;47.052;15.462;2023-03-14T10:16:44;18.70;49.40
75931;DHT22;64609;47.052;15.462;2023-03-14T10:19:12;18.70;49.20
75931;DHT22;64609;47.052;15.462;2023-03-14T10:21:40;18.70;48.70
75931;DHT22;64609;47.052;15.462;2023-03-14T10:24:33;18.80;48.80
75931;DHT22;64609;47.052;15.462;2023-03-14T10:27:04;18.90;48.80
75931;DHT22;64609;47.052;15.462;2023-03-14T10:29:32;19.00;49.10
75931;DHT22;64609;47.052;15.462;2023-03-14T10:32:04;19.30;48.40
75931;DHT22;64609;47.052;15.462;2023-03-14T10:34:34;19.50;48.10
75931;DHT22;64609;47.052;15.462;2023-03-14T10:37:22;19.80;48.20
75931;DHT22;64609;47.052;15.462;2023-03-14T10:39:53;20.20;48.20
75931;DHT22;64609;47.052;15.462;2023-03-14T10:42:26;20.50;48.30
75931;DHT22;64609;47.052;15.462;2023-03-14T10:45:06;20.60;48.10
75931;DHT22;64609;47.052;15.462;2023-03-14T10:47:49;21.00;46.00
75931;DHT22;64609;47.052;15.462;2023-03-14T10:50:28;21.20;45.50
75931;DHT22;64609;47.052;15.462;2023-03-14T10:52:55;21.10;44.80
75931;DHT22;64609;47.052;15.462;2023-03-14T10:55:23;21.10;45.00
75931;DHT22;64609;47.052;15.462;2023-03-14T10:57:49;21.20;44.80
75931;DHT22;64609;47.052;15.462;2023-03-14T11:00:17;21.10;44.50
75931;DHT22;64609;47.052;15.462;2023-03-14T11:03:02;20.90;43.20
75931;DHT22;64609;47.052;15.462;2023-03-14T11:05:53;20.70;42.30
75931;DHT22;64609;47.052;15.462;2023-03-14T11:08:37;20.60;41.30
75931;DHT22;64609;47.052;15.462;2023-03-14T11:11:16;20.40;42.20
75931;DHT22;64609;47.052;15.462;2023-03-14T11:16:22;20.30;41.00
75931;DHT22;64609;47.052;15.462;2023-03-14T11:21:40;20.10;41.40
75931;DHT22;64609;47.052;15.462;2023-03-14T11:26:51;20.10;41.30
75931;DHT22;64609;47.052;15.462;2023-03-14T11:29:39;20.20;41.00
75931;DHT22;64609;47.052;15.462;2023-03-14T11:32:23;20.30;41.10
75931;DHT22;64609;47.052;15.462;2023-03-14T11:34:54;20.60;40.70
75931;DHT22;64609;47.052;15.462;2023-03-14T11:37:28;20.90;40.50
75931;DHT22;64609;47.052;15.462;2023-03-14T11:42:43;21.60;39.00
75931;DHT22;64609;47.052;15.462;2023-03-14T11:45:21;21.90;38.70
75931;DHT22;64609;47.052;15.462;2023-03-14T11:47:53;22.00;38.10
75931;DHT22;64609;47.052;15.462;2023-03-14T11:50:27;21.90;37.40
75931;DHT22;64609;47.052;15.462;2023-03-14T11:55:37;21.70;37.10
75931;DHT22;64609;47.052;15.462;2023-03-14T11:58:14;21.70;37.30
75931;DHT22;64609;47.052;15.462;2023-03-14T12:00:44;21.60;36.90
75931;DHT22;64609;47.052;15.462;2023-03-14T12:13:45;22.00;36.80
75931;DHT22;64609;47.052;15.462;2023-03-14T12:18:52;21.70;37.50
75931;DHT22;64609;47.052;15.462;2023-03-14T12:21:19;21.60;37.90
75931;DHT22;64609;47.052;15.462;2023-03-14T12:23:52;21.40;37.90
75931;DHT22;64609;47.052;15.462;2023-03-14T12:26:24;21.30;37.90
75931;DHT22;64609;47.052;15.462;2023-03-14T12:39:50;20.60;37.70
75931;DHT22;64609;47.052;15.462;2023-03-14T12:48:10;20.20;38.30
75931;DHT22;64609;47.052;15.462;2023-03-14T12:50:45;20.10;38.40
75931;DHT22;64609;47.052;15.462;2023-03-14T13:01:21;19.90;39.30
75931;DHT22;64609;47.052;15.462;2023-03-14T13:03:57;19.80;39.80
75931;DHT22;64609;47.052;15.462;2023-03-14T13:06:55;19.60;40.10
75931;DHT22;64609;47.052;15.462;2023-03-14T13:09:52;19.50;40.90
75931;DHT22;64609;47.052;15.462;2023-03-14T13:12:23;19.40;41.30
75931;DHT22;64609;47.052;15.462;2023-03-14T13:14:53;19.40;41.70
75931;DHT22;64609;47.052;15.462;2023-03-14T13:17:33;19.40;41.90
75931;DHT22;64609;47.052;15.462;2023-03-14T13:20:04;19.40;42.00
75931;DHT22;64609;47.052;15.462;2023-03-14T13:22:34;19.40;42.10
75931;DHT22;64609;47.052;15.462;2023-03-14T13:25:09;19.30;42.10
75931;DHT22;64609;47.052;15.462;2023-03-14T13:27:36;19.30;42.30
75931;DHT22;64609;47.052;15.462;2023-03-14T13:30:16;19.30;43.50
75931;DHT22;64609;47.052;15.462;2023-03-14T13:32:44;19.30;42.40
75931;DHT22;64609;47.052;15.462;2023-03-14T13:38:01;19.40;42.80
75931;DHT22;64609;47.052;15.462;2023-03-14T13:40:34;19.50;42.50
75931;DHT22;64609;47.052;15.462;2023-03-14T13:43:10;19.40;42.40
75931;DHT22;64609;47.052;15.462;2023-03-14T13:46:07;19.30;42.50
75931;DHT22;64609;47.052;15.462;2023-03-14T13:48:47;19.30;42.50
75931;DHT22;64609;47.052;15.462;2023-03-14T13:51:15;19.10;42.70
75931;DHT22;64609;47.052;15.462;2023-03-14T13:53:47;19.10;42.90
75931;DHT22;64609;47.052;15.462;2023-03-14T13:56:14;19.10;42.80
75931;DHT22;64609;47.052;15.462;2023-03-14T13:58:41;19.10;42.80
75931;DHT22;64609;47.052;15.462;2023-03-14T14:01:29;19.10;43.00
75931;DHT22;64609;47.052;15.462;2023-03-14T14:03:58;19.10;42.80
75931;DHT22;64609;47.052;15.462;2023-03-14T14:06:33;19.10;42.90
75931;DHT22;64609;47.052;15.462;2023-03-14T14:09:43;19.10;43.20
75931;DHT22;64609;47.052;15.462;2023-03-14T14:12:14;19.00;43.00
75931;DHT22;64609;47.052;15.462;2023-03-14T14:17:19;18.80;43.50
75931;DHT22;64609;47.052;15.462;2023-03-14T14:19:47;18.70;43.50
75931;DHT22;64609;47.052;15.462;2023-03-14T14:22:13;18.70;43.80
75931;DHT22;64609;47.052;15.462;2023-03-14T14:24:39;18.80;43.80
75931;DHT22;64609;47.052;15.462;2023-03-14T14:27:28;18.80;43.60
75931;DHT22;64609;47.052;15.462;2023-03-14T14:29:59;18.80;43.80
75931;DHT22;64609;47.052;15.462;2023-03-14T14:32:25;18.80;43.90
75931;DHT22;64609;47.052;15.462;2023-03-14T14:34:59;18.80;43.80
75931;DHT22;64609;47.052;15.462;2023-03-14T14:37:33;18.90;43.80
75931;DHT22;64609;47.052;15.462;2023-03-14T14:40:06;19.00;43.50
75931;DHT22;64609;47.052;15.462;2023-03-14T14:42:33;19.00;43.20
75931;DHT22;64609;47.052;15.462;2023-03-14T14:44:59;19.00;43.20
75931;DHT22;64609;47.052;15.462;2023-03-14T14:47:27;19.00;43.30
75931;DHT22;64609;47.052;15.462;2023-03-14T14:49:56;19.00;43.40
75931;DHT22;64609;47.052;15.462;2023-03-14T14:52:34;19.10;43.20
75931;DHT22;64609;47.052;15.462;2023-03-14T14:55:02;19.10;42.90
75931;DHT22;64609;47.052;15.462;2023-03-14T14:57:31;19.10;43.10
75931;DHT22;64609;47.052;15.462;2023-03-14T15:00:10;19.10;42.90
75931;DHT22;64609;47.052;15.462;2023-03-14T15:02:46;19.10;42.70
75931;DHT22;64609;47.052;15.462;2023-03-14T15:07:39;19.00;42.70
75931;DHT22;64609;47.052;15.462;2023-03-14T15:10:06;19.00;42.60
75931;DHT22;64609;47.052;15.462;2023-03-14T15:12:31;19.00;42.70
75931;DHT22;64609;47.052;15.462;2023-03-14T15:14:57;19.00;42.90
75931;DHT22;64609;47.052;15.462;2023-03-14T15:17:23;19.10;43.00
75931;DHT22;64609;47.052;15.462;2023-03-14T15:19:49;19.10;42.70
75931;DHT22;64609;47.052;15.462;2023-03-14T15:22:15;19.10;42.70
75931;DHT22;64609;47.052;15.462;2023-03-14T15:24:41;19.20;42.70
75931;DHT22;64609;47.052;15.462;2023-03-14T15:27:14;19.10;42.60
75931;DHT22;64609;47.052;15.462;2023-03-14T15:29:40;19.10;42.60
75931;DHT22;64609;47.052;15.462;2023-03-14T15:32:11;19.10;42.60
75931;DHT22;64609;47.052;15.462;2023-03-14T15:34:36;19.10;42.70
75931;DHT22;64609;47.052;15.462;2023-03-14T15:37:02;19.00;43.60
75931;DHT22;64609;47.052;15.462;2023-03-14T15:39:33;19.00;42.60
75931;DHT22;64609;47.052;15.462;2023-03-14T15:41:59;19.00;42.80
75931;DHT22;64609;47.052;15.462;2023-03-14T15:44:25;19.00;42.90
75931;DHT22;64609;47.052;15.462;2023-03-14T15:46:50;19.00;42.80
75931;DHT22;64609;47.052;15.462;2023-03-14T15:49:16;19.00;42.90
75931;DHT22;64609;47.052;15.462;2023-03-14T15:51:41;19.00;43.00
75931;DHT22;64609;47.052;15.462;2023-03-14T15:54:07;19.00;43.00
75931;DHT22;64609;47.052;15.462;2023-03-14T15:56:33;19.00;42.90
75931;DHT22;64609;47.052;15.462;2023-03-14T15:58:58;19.00;42.90
75931;DHT22;64609;47.052;15.462;2023-03-14T16:01:24;19.00;42.80
75931;DHT22;64609;47.052;15.462;2023-03-14T16:03:50;19.00;42.80
75931;DHT22;64609;47.052;15.462;2023-03-14T16:06:18;19.00;42.90
75931;DHT22;64609;47.052;15.462;2023-03-14T16:08:44;19.00;42.80
75931;DHT22;64609;47.052;15.462;2023-03-14T16:11:12;19.00;42.90
75931;DHT22;64609;47.052;15.462;2023-03-14T16:13:39;19.00;43.00
75931;DHT22;64609;47.052;15.462;2023-03-14T16:16:06;19.00;43.20
75931;DHT22;64609;47.052;15.462;2023-03-14T16:18:34;19.00;43.30
75931;DHT22;64609;47.052;15.462;2023-03-14T16:21:02;18.90;43.30
75931;DHT22;64609;47.052;15.462;2023-03-14T16:23:30;18.90;43.40
75931;DHT22;64609;47.052;15.462;2023-03-14T16:25:57;18.90;43.50
75931;DHT22;64609;47.052;15.462;2023-03-14T16:28:24;18.80;43.80
75931;DHT22;64609;47.052;15.462;2023-03-14T16:30:50;18.50;44.20